createdAt,value
2022-10-03T00:01:09.471Z,8.71
2022-10-03T00:02:27.222Z,8.63
2022-10-03T00:03:33.879Z,8.79
2022-10-03T00:05:07.392Z,8.71
2022-10-03T00:06:14.241Z,8.57
2022-10-03T00:07:18.592Z,8.63
2022-10-03T00:08:37.383Z,8.62
2022-10-03T00:10:05.945Z,8.73
2022-10-03T00:11:27.502Z,8.75
2022-10-03T00:12:51.890Z,8.72
2022-10-03T00:14:00.581Z,8.58
2022-10-03T00:15:05.209Z,8.92
2022-10-03T00:16:29.518Z,8.82
2022-10-03T00:17:59.429Z,8.88
2022-10-03T00:18:58.661Z,8.84
2022-10-03T00:20:15.237Z,9.09
2022-10-03T00:21:38.593Z,9.50
2022-10-03T00:22:38.229Z,9.15
2022-10-03T00:23:35.906Z,8.91
2022-10-03T00:24:48.108Z,8.83
2022-10-03T00:26:30.897Z,8.83
2022-10-03T00:27:33.489Z,8.80
2022-10-03T00:28:39.111Z,8.77
2022-10-03T00:29:38.641Z,8.95
2022-10-03T00:31:01.494Z,9.15
2022-10-03T00:31:58.027Z,9.20
2022-10-03T00:32:54.544Z,9.05
2022-10-03T00:34:19.681Z,9.19
2022-10-03T00:35:24.480Z,9.36
2022-10-03T00:36:51.072Z,10.00
2022-10-03T00:38:05.819Z,9.95
2022-10-03T00:39:11.588Z,9.90
2022-10-03T00:40:32.887Z,10.22
2022-10-03T00:42:01.968Z,9.85
2022-10-03T00:43:31.483Z,10.02
2022-10-03T00:44:44.082Z,10.24
2022-10-03T00:45:55.667Z,9.42
2022-10-03T00:46:54.985Z,9.40
2022-10-03T00:48:20.191Z,9.30
2022-10-03T00:49:22.930Z,9.06
2022-10-03T00:50:34.408Z,8.90
2022-10-03T00:51:58.361Z,8.89
2022-10-03T00:53:16.829Z,8.82
2022-10-03T00:55:04.317Z,8.79
2022-10-03T00:56:39.019Z,9.06
2022-10-03T00:57:59.812Z,9.07
2022-10-03T00:59:11.304Z,9.09
2022-10-03T01:00:19.340Z,9.40
2022-10-03T01:01:27.938Z,9.67
2022-10-03T01:02:39.416Z,9.71
2022-10-03T01:03:58.792Z,9.93
2022-10-03T01:05:29.880Z,10.13
2022-10-03T01:07:00.897Z,9.82
2022-10-03T01:08:24.308Z,10.02
2022-10-03T01:09:41.851Z,9.88
2022-10-03T01:10:44.552Z,9.74
2022-10-03T01:12:02.335Z,9.94
2022-10-03T01:13:10.932Z,9.50
2022-10-03T01:14:31.231Z,8.94
2022-10-03T01:15:43.645Z,8.98
2022-10-03T01:16:56.723Z,9.02
2022-10-03T01:18:09.463Z,8.93
2022-10-03T01:19:24.829Z,9.00
2022-10-03T01:20:53.920Z,9.06
2022-10-03T01:22:18.958Z,8.87
2022-10-03T01:23:37.246Z,8.85
2022-10-03T01:24:45.810Z,8.82
2022-10-03T01:25:56.835Z,8.83
2022-10-03T01:26:53.394Z,8.80
2022-10-03T01:28:14.418Z,8.83
2022-10-03T01:29:58.092Z,8.61
2022-10-03T01:31:03.098Z,8.55
2022-10-03T01:32:15.920Z,8.72
2022-10-03T01:33:35.465Z,8.46
2022-10-03T01:34:48.699Z,8.41
2022-10-03T01:35:59.768Z,8.46
2022-10-03T01:37:38.134Z,8.38
2022-10-03T01:38:39.733Z,8.46
2022-10-03T01:39:46.787Z,7.94
2022-10-03T01:40:57.604Z,8.35
2022-10-03T01:42:06.130Z,8.35
2022-10-03T01:43:12.011Z,8.35
2022-10-03T01:44:24.515Z,8.35
2022-10-03T01:45:37.496Z,8.18
2022-10-03T01:46:48.710Z,8.10
2022-10-03T01:47:55.517Z,8.06
2022-10-03T01:49:09.511Z,8.16
2022-10-03T01:50:20.131Z,8.07
2022-10-03T01:51:29.090Z,7.99
2022-10-03T01:52:47.469Z,8.05
2022-10-03T01:53:59.443Z,8.18
2022-10-03T01:55:02.650Z,8.15
2022-10-03T01:56:25.871Z,8.13
2022-10-03T01:57:38.929Z,7.99
2022-10-03T01:58:59.372Z,7.77
2022-10-03T02:00:07.547Z,7.90
2022-10-03T02:01:13.578Z,7.88
2022-10-03T02:02:28.269Z,7.97
2022-10-03T02:03:31.449Z,7.98
2022-10-03T02:04:28.007Z,8.00
2022-10-03T02:05:43.069Z,8.02
2022-10-03T02:06:44.322Z,8.03
2022-10-03T02:07:49.906Z,7.95
2022-10-03T02:09:03.676Z,7.98
2022-10-03T02:10:07.439Z,8.15
2022-10-03T02:11:08.433Z,8.19
2022-10-03T02:12:09.732Z,8.17
2022-10-03T02:13:28.946Z,8.21
2022-10-03T02:14:39.842Z,8.54
2022-10-03T02:16:08.243Z,9.17
2022-10-03T02:17:16.782Z,9.43
2022-10-03T02:18:21.746Z,9.41
2022-10-03T02:19:26.480Z,9.42
2022-10-03T02:20:26.373Z,9.22
2022-10-03T02:21:30.553Z,9.00
2022-10-03T02:22:38.705Z,9.09
2022-10-03T02:23:36.322Z,8.93
2022-10-03T02:24:50.885Z,8.33
2022-10-03T02:26:05.835Z,8.15
2022-10-03T02:27:41.571Z,7.94
2022-10-03T02:29:02.494Z,7.81
2022-10-03T02:30:10.311Z,7.78
2022-10-03T02:31:17.513Z,7.72
2022-10-03T02:32:39.289Z,7.77
2022-10-03T02:34:02.379Z,7.70
2022-10-03T02:35:40.091Z,7.58
2022-10-03T02:36:55.170Z,7.41
2022-10-03T02:38:09.005Z,7.42
2022-10-03T02:39:42.402Z,7.49
2022-10-03T02:41:09.749Z,7.56
2022-10-03T02:42:27.478Z,7.39
2022-10-03T02:43:31.884Z,7.25
2022-10-03T02:44:28.494Z,7.27
2022-10-03T02:45:46.700Z,7.27
2022-10-03T02:47:01.441Z,7.27
2022-10-03T02:48:30.548Z,7.47
2022-10-03T02:49:45.442Z,7.58
2022-10-03T02:50:58.316Z,7.74
2022-10-03T02:52:06.994Z,7.85
2022-10-03T02:53:15.673Z,7.93
2022-10-03T02:54:57.154Z,8.00
2022-10-03T02:56:08.844Z,8.47
2022-10-03T02:57:53.817Z,8.61
2022-10-03T02:59:22.599Z,8.89
2022-10-03T03:00:28.100Z,9.03
2022-10-03T03:01:39.184Z,9.01
2022-10-03T03:02:41.958Z,8.87
2022-10-03T03:04:07.816Z,8.48
2022-10-03T03:05:25.760Z,8.20
2022-10-03T03:06:46.973Z,8.15
2022-10-03T03:08:13.841Z,8.08
2022-10-03T03:09:48.013Z,8.01
2022-10-03T03:11:03.316Z,7.99
2022-10-03T03:12:08.978Z,8.00
2022-10-03T03:13:39.752Z,8.08
2022-10-03T03:15:08.577Z,8.14
2022-10-03T03:16:41.977Z,8.23
2022-10-03T03:17:44.734Z,8.30
2022-10-03T03:19:07.749Z,8.22
2022-10-03T03:20:27.211Z,8.13
2022-10-03T03:21:32.583Z,8.24
2022-10-03T03:22:36.422Z,8.24
2022-10-03T03:23:55.109Z,8.22
2022-10-03T03:25:21.053Z,8.10
2022-10-03T03:26:58.060Z,8.02
2022-10-03T03:28:13.050Z,8.05
2022-10-03T03:29:43.326Z,8.06
2022-10-03T03:31:21.667Z,8.06
2022-10-03T03:32:31.198Z,8.10
2022-10-03T03:33:40.806Z,8.20
2022-10-03T03:34:50.831Z,8.20
2022-10-03T03:36:05.887Z,8.31
2022-10-03T03:37:16.201Z,8.42
2022-10-03T03:38:30.267Z,8.42
2022-10-03T03:40:01.845Z,8.45
2022-10-03T03:41:30.283Z,8.43
2022-10-03T03:42:35.628Z,8.51
2022-10-03T03:43:50.860Z,8.53
2022-10-03T03:45:07.845Z,8.51
2022-10-03T03:46:22.306Z,8.42
2022-10-03T03:47:18.947Z,8.45
2022-10-03T03:48:40.148Z,8.44
2022-10-03T03:49:43.706Z,8.53
2022-10-03T03:51:05.551Z,8.59
2022-10-03T03:52:38.286Z,8.70
2022-10-03T03:54:13.711Z,8.71
2022-10-03T03:55:41.238Z,8.54
2022-10-03T03:57:01.888Z,8.47
2022-10-03T03:57:59.877Z,8.45
2022-10-03T03:59:13.556Z,8.44
2022-10-03T04:00:21.128Z,8.44
2022-10-03T04:01:39.601Z,8.50
2022-10-03T04:02:54.650Z,8.52
2022-10-03T04:04:00.978Z,8.45
2022-10-03T04:05:00.981Z,8.45
2022-10-03T04:06:28.444Z,8.51
2022-10-03T04:07:49.317Z,8.59
2022-10-03T04:08:59.243Z,8.69
2022-10-03T04:10:13.248Z,8.68
2022-10-03T04:11:33.232Z,8.71
2022-10-03T04:12:55.987Z,8.84
2022-10-03T04:14:11.250Z,9.00
2022-10-03T04:15:29.675Z,9.03
2022-10-03T04:17:11.134Z,8.89
2022-10-03T04:18:32.096Z,8.74
2022-10-03T04:19:49.718Z,8.79
2022-10-03T04:21:05.096Z,8.88
2022-10-03T04:22:22.797Z,8.86
2022-10-03T04:23:58.244Z,8.95
2022-10-03T04:25:20.541Z,9.03
2022-10-03T04:26:22.394Z,9.13
2022-10-03T04:27:46.371Z,9.11
2022-10-03T04:28:51.918Z,9.05
2022-10-03T04:30:03.395Z,8.91
2022-10-03T04:31:05.495Z,8.94
2022-10-03T04:32:17.399Z,8.98
2022-10-03T04:33:49.178Z,8.90
2022-10-03T04:35:07.083Z,8.90
2022-10-03T04:36:15.928Z,9.00
2022-10-03T04:37:25.677Z,8.86
2022-10-03T04:38:51.203Z,8.89
2022-10-03T04:40:04.820Z,8.98
2022-10-03T04:41:12.559Z,9.26
2022-10-03T04:42:27.200Z,9.36
2022-10-03T04:43:45.444Z,9.37
2022-10-03T04:45:09.475Z,9.49
2022-10-03T04:46:32.872Z,9.49
2022-10-03T04:48:10.183Z,9.39
2022-10-03T04:49:28.206Z,9.29
2022-10-03T04:50:37.496Z,9.54
2022-10-03T04:51:55.866Z,9.33
2022-10-03T04:53:21.287Z,9.08
2022-10-03T04:54:48.386Z,9.13
2022-10-03T04:55:54.200Z,9.22
2022-10-03T04:56:59.732Z,9.30
2022-10-03T04:57:56.234Z,9.44
2022-10-03T04:59:12.082Z,9.49
2022-10-03T05:00:23.527Z,9.53
2022-10-03T05:01:20.171Z,9.63
2022-10-03T05:02:33.394Z,9.67
2022-10-03T05:03:54.395Z,9.68
2022-10-03T05:05:12.402Z,9.51
2022-10-03T05:06:36.625Z,9.32
2022-10-03T05:07:45.540Z,9.22
2022-10-03T05:09:13.966Z,9.19
2022-10-03T05:10:48.368Z,9.30
2022-10-03T05:12:00.067Z,9.40
2022-10-03T05:13:16.850Z,9.47
2022-10-03T05:15:05.715Z,9.51
2022-10-03T05:16:14.498Z,9.74
2022-10-03T05:17:26.100Z,9.86
2022-10-03T05:18:39.456Z,9.91
2022-10-03T05:19:51.062Z,9.91
2022-10-03T05:21:14.223Z,9.98
2022-10-03T05:22:38.664Z,10.05
2022-10-03T05:24:03.372Z,10.03
2022-10-03T05:25:32.672Z,10.06
2022-10-03T05:27:00.485Z,10.08
2022-10-03T05:28:15.492Z,10.14
2022-10-03T05:29:44.138Z,10.16
2022-10-03T05:31:20.726Z,10.21
2022-10-03T05:32:24.448Z,10.28
2022-10-03T05:33:29.864Z,10.19
2022-10-03T05:34:44.367Z,10.24
2022-10-03T05:36:12.214Z,10.33
2022-10-03T05:37:43.632Z,10.36
2022-10-03T05:39:01.474Z,10.36
2022-10-03T05:40:20.536Z,10.16
2022-10-03T05:41:17.178Z,10.28
2022-10-03T05:42:35.757Z,10.14
2022-10-03T05:43:32.688Z,10.21
2022-10-03T05:45:11.138Z,10.33
2022-10-03T05:46:30.154Z,10.58
2022-10-03T05:47:49.121Z,10.74
2022-10-03T05:49:02.102Z,10.87
2022-10-03T05:50:20.115Z,11.15
2022-10-03T05:51:43.847Z,11.35
2022-10-03T05:52:46.674Z,11.46
2022-10-03T05:53:58.417Z,11.56
2022-10-03T05:55:13.476Z,11.66
2022-10-03T05:56:22.312Z,11.63
2022-10-03T05:57:39.136Z,11.69
2022-10-03T05:59:08.162Z,11.62
2022-10-03T06:00:31.103Z,11.70
2022-10-03T06:01:51.900Z,11.76
2022-10-03T06:03:17.190Z,11.89
2022-10-03T06:04:27.176Z,12.24
2022-10-03T06:06:01.241Z,12.24
2022-10-03T06:07:21.766Z,12.12
2022-10-03T06:08:39.100Z,12.28
2022-10-03T06:10:04.530Z,11.99
2022-10-03T06:11:38.486Z,12.29
2022-10-03T06:13:03.292Z,12.51
2022-10-03T06:14:27.271Z,12.53
2022-10-03T06:15:44.771Z,12.35
2022-10-03T06:17:04.495Z,12.24
2022-10-03T06:18:12.042Z,11.94
2022-10-03T06:19:43.051Z,11.99
2022-10-03T06:21:16.355Z,12.03
2022-10-03T06:22:21.756Z,12.07
2022-10-03T06:23:34.662Z,11.96
2022-10-03T06:24:49.763Z,11.83
2022-10-03T06:26:03.927Z,11.73
2022-10-03T06:27:29.547Z,11.91
2022-10-03T06:28:44.207Z,11.80
2022-10-03T06:30:12.042Z,11.81
2022-10-03T06:31:55.074Z,11.60
2022-10-03T06:33:04.098Z,11.46
2022-10-03T06:34:41.951Z,11.17
2022-10-03T06:36:02.869Z,11.17
2022-10-03T06:37:05.303Z,11.13
2022-10-03T06:38:04.711Z,11.32
2022-10-03T06:39:38.802Z,11.20
2022-10-03T06:41:09.292Z,11.21
2022-10-03T06:42:27.259Z,11.22
2022-10-03T06:43:51.447Z,11.24
2022-10-03T06:45:30.091Z,11.35
2022-10-03T06:46:30.773Z,11.23
2022-10-03T06:47:42.119Z,11.21
2022-10-03T06:49:01.447Z,11.16
2022-10-03T06:50:28.733Z,11.34
2022-10-03T06:51:35.680Z,10.89
2022-10-03T06:53:13.068Z,10.64
2022-10-03T06:54:34.563Z,10.55
2022-10-03T06:55:52.792Z,10.54
2022-10-03T06:57:43.547Z,10.74
2022-10-03T06:59:05.424Z,10.58
2022-10-03T07:00:11.924Z,10.59
2022-10-03T07:01:25.230Z,10.56
2022-10-03T07:02:39.962Z,10.84
2022-10-03T07:04:01.319Z,10.38
2022-10-03T07:05:29.184Z,10.35
2022-10-03T07:06:59.761Z,10.14
2022-10-03T07:08:12.078Z,10.16
2022-10-03T07:09:08.598Z,10.05
2022-10-03T07:10:35.136Z,10.07
2022-10-03T07:11:51.219Z,10.07
2022-10-03T07:13:06.345Z,10.05
2022-10-03T07:14:25.178Z,9.99
2022-10-03T07:15:50.826Z,9.97
2022-10-03T07:17:17.962Z,9.98
2022-10-03T07:18:41.727Z,10.01
2022-10-03T07:19:47.207Z,10.05
2022-10-03T07:21:05.433Z,10.19
2022-10-03T07:22:23.632Z,10.19
2022-10-03T07:23:44.902Z,10.21
2022-10-03T07:25:03.187Z,10.29
2022-10-03T07:26:21.484Z,10.31
2022-10-03T07:27:21.140Z,10.29
2022-10-03T07:29:02.846Z,10.35
2022-10-03T07:30:09.176Z,10.43
2022-10-03T07:31:21.132Z,10.44
2022-10-03T07:32:29.939Z,10.47
2022-10-03T07:33:29.446Z,10.61
2022-10-03T07:34:51.826Z,10.66
2022-10-03T07:36:28.727Z,10.54
2022-10-03T07:38:01.486Z,10.58
2022-10-03T07:39:31.547Z,10.57
2022-10-03T07:40:31.047Z,10.67
2022-10-03T07:42:20.099Z,10.63
2022-10-03T07:43:38.138Z,10.52
2022-10-03T07:45:07.530Z,10.56
2022-10-03T07:46:31.765Z,10.49
2022-10-03T07:47:46.749Z,10.52
2022-10-03T07:48:55.403Z,10.36
2022-10-03T07:50:02.255Z,10.37
2022-10-03T07:51:08.768Z,10.43
2022-10-03T07:52:31.257Z,10.46
2022-10-03T07:53:46.088Z,10.34
2022-10-03T07:55:13.617Z,10.27
2022-10-03T07:56:40.057Z,10.34
2022-10-03T07:58:07.642Z,10.00
2022-10-03T07:59:06.948Z,10.22
2022-10-03T08:00:22.831Z,10.28
2022-10-03T08:01:42.715Z,10.30
2022-10-03T08:03:16.766Z,10.46
2022-10-03T08:04:26.299Z,10.63
2022-10-03T08:06:01.405Z,10.50
2022-10-03T08:07:10.264Z,10.90
2022-10-03T08:08:32.046Z,10.91
2022-10-03T08:10:11.487Z,10.68
2022-10-03T08:11:29.470Z,10.91
2022-10-03T08:13:05.342Z,10.94
2022-10-03T08:14:12.084Z,10.97
2022-10-03T08:15:21.621Z,10.98
2022-10-03T08:16:35.331Z,10.73
2022-10-03T08:17:47.402Z,10.84
2022-10-03T08:19:14.780Z,11.03
2022-10-03T08:20:17.227Z,11.00
2022-10-03T08:21:34.680Z,11.21
2022-10-03T08:22:43.209Z,11.28
2022-10-03T08:24:16.670Z,11.40
2022-10-03T08:25:47.333Z,11.67
2022-10-03T08:26:52.341Z,11.75
2022-10-03T08:28:07.680Z,11.73
2022-10-03T08:29:39.448Z,11.72
2022-10-03T08:31:02.311Z,11.63
2022-10-03T08:32:20.196Z,11.43
2022-10-03T08:33:28.194Z,11.28
2022-10-03T08:35:01.968Z,11.57
2022-10-03T08:36:29.581Z,11.54
2022-10-03T08:37:58.043Z,11.56
2022-10-03T08:39:10.002Z,11.74
2022-10-03T08:40:56.651Z,11.83
2022-10-03T08:42:30.917Z,11.86
2022-10-03T08:44:27.003Z,11.82
2022-10-03T08:45:32.131Z,11.66
2022-10-03T08:46:43.800Z,11.97
2022-10-03T08:48:09.424Z,11.85
2022-10-03T08:49:35.173Z,12.02
2022-10-03T08:50:50.106Z,11.98
2022-10-03T08:52:00.552Z,11.90
2022-10-03T08:53:00.774Z,12.07
2022-10-03T08:54:02.660Z,12.24
2022-10-03T08:55:23.744Z,12.45
2022-10-03T08:56:57.396Z,12.48
2022-10-03T08:58:05.553Z,12.65
2022-10-03T08:59:09.644Z,12.59
2022-10-03T09:00:22.498Z,12.45
2022-10-03T09:01:19.216Z,12.55
2022-10-03T09:03:18.931Z,13.21
2022-10-03T09:04:48.485Z,13.33
2022-10-03T09:06:19.951Z,13.14
2022-10-03T09:07:37.556Z,13.24
2022-10-03T09:08:49.265Z,13.03
2022-10-03T09:10:04.059Z,12.98
2022-10-03T09:11:09.921Z,13.18
2022-10-03T09:12:28.568Z,13.35
2022-10-03T09:13:51.265Z,13.23
2022-10-03T09:15:07.971Z,13.18
2022-10-03T09:16:22.934Z,12.89
2022-10-03T09:17:56.986Z,12.99
2022-10-03T09:19:06.743Z,12.93
2022-10-03T09:20:06.093Z,13.32
2022-10-03T09:21:20.644Z,13.24
2022-10-03T09:22:23.254Z,13.29
2022-10-03T09:24:09.472Z,13.22
2022-10-03T09:25:15.239Z,13.27
2022-10-03T09:26:42.139Z,13.63
2022-10-03T09:27:42.765Z,13.72
2022-10-03T09:29:13.330Z,13.61
2022-10-03T09:30:26.129Z,13.07
2022-10-03T09:32:06.945Z,13.36
2022-10-03T09:33:24.890Z,13.62
2022-10-03T09:34:30.359Z,13.32
2022-10-03T09:35:59.013Z,13.43
2022-10-03T09:37:18.438Z,13.60
2022-10-03T09:38:53.395Z,13.57
2022-10-03T09:40:18.386Z,14.16
2022-10-03T09:41:37.232Z,14.38
2022-10-03T09:42:50.543Z,14.63
2022-10-03T09:44:23.270Z,15.12
2022-10-03T09:45:34.830Z,14.78
2022-10-03T09:46:31.417Z,14.94
2022-10-03T09:47:46.334Z,14.98
2022-10-03T09:49:02.184Z,13.86
2022-10-03T09:50:19.484Z,14.58
2022-10-03T09:51:29.425Z,14.48
2022-10-03T09:53:03.574Z,14.57
2022-10-03T09:54:24.212Z,13.88
2022-10-03T09:56:01.700Z,13.79
2022-10-03T09:57:01.174Z,13.94
2022-10-03T09:58:16.542Z,14.16
2022-10-03T09:59:31.659Z,14.48
2022-10-03T10:00:39.707Z,14.54
2022-10-03T10:02:13.085Z,14.72
2022-10-03T10:03:43.617Z,14.78
2022-10-03T10:05:04.194Z,14.10
2022-10-03T10:06:23.971Z,14.74
2022-10-03T10:07:42.523Z,14.67
2022-10-03T10:09:08.243Z,14.32
2022-10-03T10:10:31.080Z,14.33
2022-10-03T10:11:36.790Z,13.89
2022-10-03T10:13:04.395Z,13.77
2022-10-03T10:14:30.914Z,14.23
2022-10-03T10:15:46.245Z,14.15
2022-10-03T10:16:48.088Z,14.21
2022-10-03T10:18:04.729Z,13.97
2022-10-03T10:19:31.377Z,13.76
2022-10-03T10:20:57.402Z,13.47
2022-10-03T10:22:15.994Z,13.75
2022-10-03T10:23:40.047Z,13.79
2022-10-03T10:24:39.795Z,14.23
2022-10-03T10:25:36.706Z,13.97
2022-10-03T10:26:42.682Z,14.20
2022-10-03T10:28:13.092Z,14.27
2022-10-03T10:29:18.863Z,13.64
2022-10-03T10:30:50.977Z,13.88
2022-10-03T10:32:10.868Z,13.93
2022-10-03T10:33:32.042Z,13.64
2022-10-03T10:35:06.205Z,14.06
2022-10-03T10:36:24.547Z,14.10
2022-10-03T10:37:56.381Z,13.93
2022-10-03T10:39:30.384Z,14.08
2022-10-03T10:40:49.243Z,14.27
2022-10-03T10:42:27.703Z,14.51
2022-10-03T10:43:33.423Z,14.28
2022-10-03T10:44:55.456Z,14.49
2022-10-03T10:46:10.212Z,14.37
2022-10-03T10:47:28.629Z,14.34
2022-10-03T10:48:28.054Z,13.95
2022-10-03T10:50:10.589Z,14.20
2022-10-03T10:51:58.466Z,14.52
2022-10-03T10:53:10.136Z,14.82
2022-10-03T10:54:28.492Z,15.37
2022-10-03T10:55:25.122Z,16.01
2022-10-03T10:56:30.546Z,15.90
2022-10-03T10:57:29.898Z,15.84
2022-10-03T10:58:44.360Z,15.53
2022-10-03T11:00:07.909Z,16.21
2022-10-03T11:01:37.059Z,16.01
2022-10-03T11:02:33.915Z,16.39
2022-10-03T11:03:53.754Z,15.95
2022-10-03T11:05:15.790Z,16.37
2022-10-03T11:06:53.428Z,16.43
2022-10-03T11:08:23.822Z,16.64
2022-10-03T11:09:45.350Z,16.56
2022-10-03T11:11:06.197Z,16.61
2022-10-03T11:12:27.150Z,16.70
2022-10-03T11:13:51.607Z,16.14
2022-10-03T11:15:16.149Z,15.89
2022-10-03T11:16:35.407Z,15.94
2022-10-03T11:18:06.500Z,15.15
2022-10-03T11:19:11.962Z,14.61
2022-10-03T11:20:51.205Z,14.60
2022-10-03T11:22:06.237Z,14.96
2022-10-03T11:23:04.867Z,15.25
2022-10-03T11:24:29.497Z,15.37
2022-10-03T11:26:03.799Z,15.43
2022-10-03T11:27:31.373Z,15.40
2022-10-03T11:28:46.430Z,15.50
2022-10-03T11:30:16.394Z,16.14
2022-10-03T11:31:34.431Z,15.73
2022-10-03T11:32:55.689Z,15.97
2022-10-03T11:34:31.138Z,15.98
2022-10-03T11:36:05.256Z,16.24
2022-10-03T11:37:23.649Z,16.60
2022-10-03T11:38:49.132Z,16.50
2022-10-03T11:40:00.900Z,16.70
2022-10-03T11:41:23.198Z,16.47
2022-10-03T11:42:36.149Z,16.63
2022-10-03T11:43:44.697Z,17.38
2022-10-03T11:44:43.321Z,17.23
2022-10-03T11:46:08.501Z,16.91
2022-10-03T11:47:23.821Z,16.65
2022-10-03T11:48:46.261Z,16.04
2022-10-03T11:49:55.080Z,15.99
2022-10-03T11:50:57.645Z,15.94
2022-10-03T11:52:19.262Z,15.41
2022-10-03T11:53:40.559Z,15.35
2022-10-03T11:54:44.232Z,16.01
2022-10-03T11:55:54.745Z,16.86
2022-10-03T11:57:00.088Z,16.60
2022-10-03T11:58:14.913Z,16.47
2022-10-03T11:59:34.559Z,16.47
2022-10-03T12:00:36.218Z,16.73
2022-10-03T12:01:48.601Z,16.48
2022-10-03T12:02:53.829Z,16.21
2022-10-03T12:03:53.538Z,16.58
2022-10-03T12:04:55.765Z,16.65
2022-10-03T12:06:35.737Z,16.36
2022-10-03T12:08:06.231Z,16.62
2022-10-03T12:09:14.619Z,16.61
2022-10-03T12:10:33.171Z,16.89
2022-10-03T12:11:38.536Z,17.33
2022-10-03T12:12:35.934Z,17.53
2022-10-03T12:13:41.411Z,17.55
2022-10-03T12:14:46.900Z,17.25
2022-10-03T12:15:52.577Z,17.29
2022-10-03T12:17:00.096Z,16.54
2022-10-03T12:18:26.166Z,16.82
2022-10-03T12:19:50.330Z,16.52
2022-10-03T12:21:05.499Z,16.04
2022-10-03T12:22:19.927Z,17.03
2022-10-03T12:23:54.909Z,16.47
2022-10-03T12:25:01.297Z,16.52
2022-10-03T12:26:03.095Z,16.94
2022-10-03T12:27:17.767Z,16.82
2022-10-03T12:28:28.142Z,16.83
2022-10-03T12:29:27.578Z,17.16
2022-10-03T12:30:27.615Z,17.09
2022-10-03T12:31:31.620Z,17.21
2022-10-03T12:32:44.704Z,16.84
2022-10-03T12:33:52.997Z,17.32
2022-10-03T12:35:19.640Z,16.45
2022-10-03T12:36:23.992Z,16.27
2022-10-03T12:37:44.080Z,16.31
2022-10-03T12:38:53.015Z,16.86
2022-10-03T12:40:00.854Z,17.16
2022-10-03T12:41:32.936Z,16.80
2022-10-03T12:43:01.548Z,16.79
2022-10-03T12:44:30.587Z,16.49
2022-10-03T12:45:36.742Z,16.46
2022-10-03T12:47:03.162Z,16.48
2022-10-03T12:48:09.021Z,16.15
2022-10-03T12:49:16.371Z,16.04
2022-10-03T12:50:38.922Z,16.17
2022-10-03T12:51:50.506Z,16.10
2022-10-03T12:52:57.527Z,16.27
2022-10-03T12:54:00.204Z,17.02
2022-10-03T12:55:05.886Z,17.19
2022-10-03T12:56:14.104Z,17.40
2022-10-03T12:57:28.682Z,17.38
2022-10-03T12:58:40.940Z,17.49
2022-10-03T12:59:47.400Z,17.15
2022-10-03T13:01:05.745Z,17.29
2022-10-03T13:02:28.095Z,16.62
2022-10-03T13:03:48.730Z,16.92
2022-10-03T13:05:13.154Z,16.65
2022-10-03T13:06:58.331Z,16.94
2022-10-03T13:07:57.947Z,16.50
2022-10-03T13:09:06.417Z,16.97
2022-10-03T13:10:18.392Z,16.74
2022-10-03T13:11:57.147Z,16.81
2022-10-03T13:12:58.764Z,17.59
2022-10-03T13:13:58.112Z,17.81
2022-10-03T13:15:32.058Z,17.73
2022-10-03T13:16:35.252Z,17.87
2022-10-03T13:18:01.588Z,17.47
2022-10-03T13:19:17.664Z,17.20
2022-10-03T13:20:29.253Z,17.39
2022-10-03T13:21:46.059Z,17.02
2022-10-03T13:22:53.020Z,16.81
2022-10-03T13:23:58.635Z,17.13
2022-10-03T13:25:01.661Z,17.72
2022-10-03T13:26:18.498Z,17.25
2022-10-03T13:27:52.051Z,17.57
2022-10-03T13:28:51.845Z,17.13
2022-10-03T13:29:55.269Z,17.48
2022-10-03T13:30:57.817Z,17.43
2022-10-03T13:32:05.619Z,17.23
2022-10-03T13:33:26.463Z,16.99
2022-10-03T13:34:32.052Z,16.78
2022-10-03T13:35:59.829Z,16.13
2022-10-03T13:37:10.059Z,16.47
2022-10-03T13:38:34.702Z,16.93
2022-10-03T13:39:50.371Z,16.91
2022-10-03T13:41:06.399Z,17.05
2022-10-03T13:42:19.390Z,17.36
2022-10-03T13:43:23.273Z,16.95
2022-10-03T13:44:38.015Z,16.24
2022-10-03T13:45:40.058Z,16.22
2022-10-03T13:46:53.323Z,16.15
2022-10-03T13:48:09.374Z,16.51
2022-10-03T13:49:18.956Z,16.09
2022-10-03T13:50:34.158Z,16.13
2022-10-03T13:51:50.181Z,16.39
2022-10-03T13:52:54.571Z,16.15
2022-10-03T13:54:00.151Z,16.07
2022-10-03T13:55:08.766Z,15.85
2022-10-03T13:56:33.343Z,16.09
2022-10-03T13:57:39.853Z,16.11
2022-10-03T13:58:51.432Z,15.64
2022-10-03T14:00:08.502Z,15.60
2022-10-03T14:01:11.626Z,15.51
2022-10-03T14:02:43.174Z,15.38
2022-10-03T14:03:54.549Z,15.52
2022-10-03T14:05:20.462Z,15.49
2022-10-03T14:06:37.576Z,15.40
2022-10-03T14:07:40.704Z,14.85
2022-10-03T14:08:52.180Z,15.24
2022-10-03T14:10:07.315Z,15.04
2022-10-03T14:11:16.373Z,15.48
2022-10-03T14:12:55.410Z,15.23
2022-10-03T14:14:14.422Z,15.19
2022-10-03T14:15:30.364Z,15.24
2022-10-03T14:16:31.405Z,15.47
2022-10-03T14:17:43.727Z,14.81
2022-10-03T14:18:55.782Z,14.94
2022-10-03T14:20:22.274Z,15.15
2022-10-03T14:22:09.619Z,14.84
2022-10-03T14:23:48.639Z,14.69
2022-10-03T14:24:51.753Z,15.01
2022-10-03T14:26:01.303Z,15.02
2022-10-03T14:27:12.904Z,15.04
2022-10-03T14:28:32.579Z,15.28
2022-10-03T14:30:00.404Z,15.02
2022-10-03T14:31:20.951Z,15.18
2022-10-03T14:32:46.388Z,14.60
2022-10-03T14:33:45.726Z,14.87
2022-10-03T14:35:03.848Z,14.87
2022-10-03T14:36:12.436Z,14.48
2022-10-03T14:37:57.186Z,14.74
2022-10-03T14:39:35.978Z,14.21
2022-10-03T14:40:50.359Z,14.55
2022-10-03T14:41:55.904Z,14.18
2022-10-03T14:43:08.784Z,14.08
2022-10-03T14:44:39.645Z,13.93
2022-10-03T14:45:45.074Z,13.78
2022-10-03T14:46:53.001Z,13.45
2022-10-03T14:47:55.226Z,13.48
2022-10-03T14:48:58.913Z,13.39
2022-10-03T14:50:00.058Z,13.19
2022-10-03T14:51:22.457Z,13.33
2022-10-03T14:52:51.489Z,13.46
2022-10-03T14:53:55.596Z,13.40
2022-10-03T14:54:54.536Z,13.46
2022-10-03T14:56:03.815Z,13.23
2022-10-03T14:57:00.516Z,13.25
2022-10-03T14:58:16.867Z,13.14
2022-10-03T14:59:34.786Z,13.46
2022-10-03T15:00:45.393Z,13.62
2022-10-03T15:01:49.506Z,13.61
2022-10-03T15:02:47.181Z,13.33
2022-10-03T15:04:02.809Z,13.60
2022-10-03T15:05:36.033Z,13.40
2022-10-03T15:06:43.165Z,13.38
2022-10-03T15:07:43.397Z,13.57
2022-10-03T15:08:44.635Z,13.52
2022-10-03T15:09:43.221Z,13.57
2022-10-03T15:10:40.570Z,13.39
2022-10-03T15:11:53.063Z,13.19
2022-10-03T15:12:55.975Z,13.47
2022-10-03T15:13:58.562Z,13.42
2022-10-03T15:15:02.620Z,13.46
2022-10-03T15:16:01.817Z,12.71
2022-10-03T15:17:01.457Z,12.81
2022-10-03T15:18:00.679Z,13.17
2022-10-03T15:19:07.454Z,12.55
2022-10-03T15:20:05.800Z,12.75
2022-10-03T15:21:03.194Z,12.38
2022-10-03T15:22:11.384Z,12.39
2022-10-03T15:23:21.225Z,12.43
2022-10-03T15:24:30.800Z,12.40
2022-10-03T15:25:30.308Z,12.53
2022-10-03T15:26:31.306Z,12.35
2022-10-03T15:27:29.008Z,12.17
2022-10-03T15:29:02.679Z,12.24
2022-10-03T15:30:03.952Z,11.92
2022-10-03T15:31:09.804Z,12.00
2022-10-03T15:32:20.133Z,12.21
2022-10-03T15:33:32.919Z,11.96
2022-10-03T15:34:37.576Z,11.88
2022-10-03T15:35:39.204Z,11.92
2022-10-03T15:36:42.137Z,11.61
2022-10-03T15:37:46.883Z,12.00
2022-10-03T15:38:52.418Z,11.80
2022-10-03T15:39:52.664Z,11.61
2022-10-03T15:41:07.989Z,11.78
2022-10-03T15:42:10.395Z,11.74
2022-10-03T15:43:13.066Z,11.79
2022-10-03T15:44:22.068Z,11.87
2022-10-03T15:45:29.481Z,11.83
2022-10-03T15:46:36.629Z,11.48
2022-10-03T15:47:44.240Z,11.40
2022-10-03T15:48:47.260Z,11.44
2022-10-03T15:49:51.636Z,11.35
2022-10-03T15:50:56.059Z,11.37
2022-10-03T15:51:55.403Z,11.29
2022-10-03T15:53:12.371Z,11.46
2022-10-03T15:54:25.005Z,11.51
2022-10-03T15:55:34.775Z,11.40
2022-10-03T15:56:41.851Z,11.24
2022-10-03T15:57:58.686Z,11.45
2022-10-03T15:59:04.183Z,11.56
2022-10-03T16:00:03.584Z,11.80
2022-10-03T16:01:07.614Z,11.45
2022-10-03T16:02:20.567Z,11.51
2022-10-03T16:03:23.254Z,11.55
2022-10-03T16:04:33.809Z,11.41
2022-10-03T16:05:31.148Z,11.36
2022-10-03T16:06:57.933Z,11.34
2022-10-03T16:07:54.447Z,11.58
2022-10-03T16:09:31.464Z,11.62
2022-10-03T16:11:12.243Z,11.37
2022-10-03T16:12:26.946Z,11.55
2022-10-03T16:13:44.597Z,11.66
2022-10-03T16:14:45.532Z,11.83
2022-10-03T16:16:02.570Z,11.71
2022-10-03T16:17:15.948Z,11.55
2022-10-03T16:18:44.355Z,11.53
2022-10-03T16:19:45.494Z,11.52
2022-10-03T16:20:47.427Z,10.97
2022-10-03T16:21:53.498Z,11.13
2022-10-03T16:22:59.728Z,11.32
2022-10-03T16:23:59.650Z,11.26
2022-10-03T16:25:19.328Z,11.33
2022-10-03T16:26:29.521Z,11.40
2022-10-03T16:27:33.245Z,11.55
2022-10-03T16:28:47.243Z,11.60
2022-10-03T16:29:52.580Z,11.55